Time;durP1;ratioP1;P1;durP2;ratioP2;P2;SDS_P1;SDS_P2;PMS_P1;PMS_P2;Temp;Humidity;BMP_temperature;BMP_pressure;BME280_temperature;BME280_humidity;BME280_pressure;Samples;Min_cycle;Max_cycle;Signal;HPM_P1;HPM_P2
2024/01/13 00:01:21;;;;;;;34.33;16.67;;;;;;;;;;5068059;28;20201;-35
2024/01/13 00:03:52;;;;;;;41.40;18.13;;;;;;;;;;5055166;28;20665;-33
2024/01/13 00:06:24;;;;;;;39.30;17.70;;;;;;;;;;5046633;28;20317;-33
2024/01/13 00:08:52;;;;;;;39.27;18.17;;;;;;;;;;5042135;28;20213;-33
2024/01/13 00:11:24;;;;;;;36.43;16.23;;;;;;;;;;5050494;28;20310;-33
2024/01/13 00:13:55;;;;;;;38.73;17.47;;;;;;;;;;5042198;28;20298;-38
2024/01/13 00:16:27;;;;;;;40.77;18.50;;;;;;;;;;5053142;28;20839;-35
2024/01/13 00:18:56;;;;;;;39.70;17.53;;;;;;;;;;5038785;28;20725;-35
2024/01/13 00:21:31;;;;;;;37.57;17.27;;;;;;;;;;5044968;28;20260;-33
2024/01/13 00:24:00;;;;;;;43.13;19.63;;;;;;;;;;5052719;28;20209;-37
2024/01/13 00:26:31;;;;;;;37.63;16.97;;;;;;;;;;5037914;28;20260;-33
2024/01/13 00:28:59;;;;;;;39.20;17.07;;;;;;;;;;5043109;28;20197;-36
2024/01/13 00:31:30;;;;;;;39.67;16.93;;;;;;;;;;5038368;28;20262;-33
2024/01/13 00:33:59;;;;;;;35.20;17.50;;;;;;;;;;5032596;28;20206;-36
2024/01/13 00:36:30;;;;;;;40.33;18.60;;;;;;;;;;5034639;28;20220;-34
2024/01/13 00:38:58;;;;;;;37.67;17.37;;;;;;;;;;5052242;28;20236;-38
2024/01/13 00:41:27;;;;;;;37.73;16.77;;;;;;;;;;5050858;28;20210;-35
2024/01/13 00:43:57;;;;;;;41.80;18.93;;;;;;;;;;5050233;28;20214;-40
2024/01/13 00:46:31;;;;;;;42.70;17.33;;;;;;;;;;5046129;28;20213;-34
2024/01/13 00:49:06;;;;;;;39.23;18.07;;;;;;;;;;5043560;28;20686;-34
2024/01/13 00:51:39;;;;;;;29.67;14.00;;;;;;;;;;5044107;28;20221;-34
2024/01/13 00:54:20;;;;;;;30.73;13.87;;;;;;;;;;5048341;28;20230;-36
2024/01/13 00:56:52;;;;;;;34.23;14.87;;;;;;;;;;5049122;28;20485;-34
2024/01/13 00:59:21;;;;;;;40.40;16.87;;;;;;;;;;5038521;28;20206;-36
2024/01/13 01:01:51;;;;;;;34.80;14.97;;;;;;;;;;5043016;28;20205;-36
2024/01/13 01:04:21;;;;;;;37.13;16.33;;;;;;;;;;5043462;28;20230;-33
2024/01/13 01:06:50;;;;;;;42.67;18.87;;;;;;;;;;5043231;28;20205;-37
2024/01/13 01:09:18;;;;;;;35.57;15.27;;;;;;;;;;5052579;28;20495;-34
2024/01/13 01:11:47;;;;;;;42.17;17.73;;;;;;;;;;5042775;28;20217;-34
2024/01/13 01:14:15;;;;;;;36.43;15.50;;;;;;;;;;5044855;28;20226;-35
2024/01/13 01:16:49;;;;;;;38.43;16.47;;;;;;;;;;5040104;28;20214;-33
2024/01/13 01:19:18;;;;;;;36.90;16.73;;;;;;;;;;5037610;28;20210;-32
2024/01/13 01:21:47;;;;;;;41.73;17.40;;;;;;;;;;5049847;28;20263;-34
2024/01/13 01:24:19;;;;;;;34.00;16.13;;;;;;;;;;5038942;28;20234;-33
2024/01/13 01:26:50;;;;;;;34.83;15.00;;;;;;;;;;5031932;28;20272;-36
2024/01/13 01:29:19;;;;;;;32.63;14.77;;;;;;;;;;5045424;28;20202;-32
2024/01/13 01:31:53;;;;;;;33.93;15.30;;;;;;;;;;5043232;28;20233;-36
2024/01/13 01:34:27;;;;;;;31.30;15.10;;;;;;;;;;5038078;28;20299;-32
2024/01/13 01:36:58;;;;;;;32.63;14.37;;;;;;;;;;5041799;28;20257;-33
2024/01/13 01:39:27;;;;;;;32.40;13.63;;;;;;;;;;5044402;28;20728;-35
2024/01/13 01:42:00;;;;;;;30.90;12.27;;;;;;;;;;5033768;28;20676;-35
2024/01/13 01:44:32;;;;;;;33.57;14.00;;;;;;;;;;5035845;28;20227;-36
2024/01/13 01:47:05;;;;;;;37.33;15.00;;;;;;;;;;5032513;28;20251;-31
2024/01/13 01:49:38;;;;;;;36.00;15.03;;;;;;;;;;5039222;28;20221;-35
2024/01/13 01:52:08;;;;;;;38.20;15.17;;;;;;;;;;5040217;28;20290;-31
2024/01/13 01:54:42;;;;;;;33.97;14.07;;;;;;;;;;5038441;28;20245;-34
2024/01/13 01:57:13;;;;;;;34.50;14.37;;;;;;;;;;5039298;28;20206;-36
2024/01/13 01:59:42;;;;;;;31.80;16.67;;;;;;;;;;5033835;28;20669;-33
2024/01/13 02:02:17;;;;;;;35.40;17.03;;;;;;;;;;5037868;28;20310;-36
2024/01/13 02:04:48;;;;;;;37.90;16.10;;;;;;;;;;5034410;28;20268;-31
2024/01/13 02:07:20;;;;;;;36.37;15.13;;;;;;;;;;5038087;28;20205;-31
2024/01/13 02:09:50;;;;;;;34.03;15.37;;;;;;;;;;5041021;28;20211;-32
2024/01/13 02:12:27;;;;;;;39.97;16.67;;;;;;;;;;5034552;28;20279;-35
2024/01/13 02:15:02;;;;;;;31.40;14.93;;;;;;;;;;5045681;28;20275;-34
2024/01/13 02:17:33;;;;;;;35.13;15.30;;;;;;;;;;5044564;28;20384;-30
2024/01/13 02:20:10;;;;;;;35.90;16.47;;;;;;;;;;5039102;28;20217;-33
2024/01/13 02:22:41;;;;;;;39.33;16.20;;;;;;;;;;5050213;28;20293;-33
2024/01/13 02:25:13;;;;;;;36.13;16.33;;;;;;;;;;5042457;28;20221;-37
2024/01/13 02:27:46;;;;;;;42.37;18.37;;;;;;;;;;5038533;28;20655;-35
2024/01/13 02:30:24;;;;;;;43.20;18.27;;;;;;;;;;5040801;28;20256;-34
2024/01/13 02:32:57;;;;;;;37.00;16.03;;;;;;;;;;5047216;28;20225;-34
2024/01/13 02:35:29;;;;;;;45.37;19.53;;;;;;;;;;5045219;28;20299;-35
2024/01/13 02:38:09;;;;;;;49.87;19.73;;;;;;;;;;5047916;28;20206;-37
2024/01/13 02:40:38;;;;;;;43.80;18.20;;;;;;;;;;5046952;28;20205;-32
2024/01/13 02:43:11;;;;;;;41.17;18.03;;;;;;;;;;5045626;28;20209;-30
2024/01/13 02:45:45;;;;;;;40.13;17.57;;;;;;;;;;5041610;28;20312;-36
2024/01/13 02:48:17;;;;;;;32.67;15.70;;;;;;;;;;5032223;28;20206;-32
2024/01/13 02:51:00;;;;;;;42.53;19.00;;;;;;;;;;5039212;28;20730;-33
2024/01/13 02:56:18;;;;;;;44.43;18.93;;;;;;;;;;5050139;28;20491;-27
2024/01/13 02:58:50;;;;;;;43.13;17.93;;;;;;;;;;5046921;28;20206;-27
2024/01/13 03:01:30;;;;;;;43.23;17.43;;;;;;;;;;5039580;28;20234;-26
2024/01/13 03:03:59;;;;;;;39.77;18.63;;;;;;;;;;5033607;28;20210;-27
2024/01/13 03:06:31;;;;;;;46.87;20.70;;;;;;;;;;5043920;28;20201;-28
2024/01/13 03:09:01;;;;;;;50.70;20.30;;;;;;;;;;5308105;23;20320;-27
2024/01/13 03:11:34;;;;;;;43.97;18.37;;;;;;;;;;5050961;28;20221;-26
2024/01/13 03:14:03;;;;;;;45.47;18.77;;;;;;;;;;5051746;28;20236;-25
2024/01/13 03:16:34;;;;;;;48.53;20.90;;;;;;;;;;5039337;28;20493;-27
2024/01/13 03:19:07;;;;;;;36.63;16.47;;;;;;;;;;5042334;28;20615;-26
2024/01/13 03:21:37;;;;;;;41.27;17.80;;;;;;;;;;5053448;28;20217;-27
2024/01/13 03:24:06;;;;;;;47.93;18.40;;;;;;;;;;5034150;28;20210;-28
2024/01/13 03:26:36;;;;;;;38.60;16.53;;;;;;;;;;5033675;28;20290;-27
2024/01/13 03:29:08;;;;;;;40.97;17.37;;;;;;;;;;5045320;28;20232;-27
2024/01/13 03:31:37;;;;;;;43.47;20.47;;;;;;;;;;5045189;28;20203;-26
2024/01/13 03:34:12;;;;;;;46.83;18.13;;;;;;;;;;5047105;28;20233;-28
2024/01/13 03:36:46;;;;;;;43.93;19.17;;;;;;;;;;5188048;22;3256895;-36
2024/01/13 03:39:16;;;;;;;44.93;18.97;;;;;;;;;;5063879;28;20212;-35
2024/01/13 03:42:00;;;;;;;39.57;17.53;;;;;;;;;;5062306;28;20205;-34
2024/01/13 03:44:29;;;;;;;43.67;17.97;;;;;;;;;;5062655;28;20293;-33
2024/01/13 03:47:01;;;;;;;41.97;19.27;;;;;;;;;;5038045;28;20217;-38
2024/01/13 03:49:30;;;;;;;46.17;19.53;;;;;;;;;;5046689;28;20213;-34
2024/01/13 03:51:59;;;;;;;39.80;18.57;;;;;;;;;;5037295;28;20203;-33
2024/01/13 03:54:28;;;;;;;48.40;20.27;;;;;;;;;;5054298;28;20260;-32
2024/01/13 03:57:01;;;;;;;42.17;19.40;;;;;;;;;;5054372;28;20248;-36
2024/01/13 03:59:30;;;;;;;47.13;20.60;;;;;;;;;;5036487;28;20206;-34
2024/01/13 04:01:59;;;;;;;52.00;22.97;;;;;;;;;;5038848;28;20270;-34
2024/01/13 04:04:29;;;;;;;48.47;21.43;;;;;;;;;;5048774;28;20317;-32
2024/01/13 04:07:01;;;;;;;40.90;18.97;;;;;;;;;;5052530;28;20205;-33
2024/01/13 04:09:29;;;;;;;44.93;20.03;;;;;;;;;;5042868;28;20202;-34
2024/01/13 04:12:02;;;;;;;49.87;20.30;;;;;;;;;;5050501;28;20571;-33
2024/01/13 04:14:33;;;;;;;47.50;20.30;;;;;;;;;;5040927;28;20595;-32
2024/01/13 04:17:05;;;;;;;41.73;19.97;;;;;;;;;;5050504;28;20225;-32
2024/01/13 04:19:34;;;;;;;48.47;18.80;;;;;;;;;;5036000;28;20754;-33
2024/01/13 04:22:07;;;;;;;53.50;20.13;;;;;;;;;;5049202;28;20256;-32
2024/01/13 04:24:37;;;;;;;47.97;19.93;;;;;;;;;;5042177;28;20237;-31
2024/01/13 04:27:10;;;;;;;43.20;19.10;;;;;;;;;;5042464;28;20211;-32
2024/01/13 04:29:43;;;;;;;43.10;18.63;;;;;;;;;;5043149;28;20584;-34
2024/01/13 04:32:15;;;;;;;48.40;18.80;;;;;;;;;;5034148;28;20545;-35
2024/01/13 04:34:51;;;;;;;48.17;20.20;;;;;;;;;;5036495;28;20238;-34
2024/01/13 04:37:22;;;;;;;47.63;19.93;;;;;;;;;;5034254;28;20266;-32
2024/01/13 04:39:54;;;;;;;50.77;21.07;;;;;;;;;;5032792;28;20211;-33
2024/01/13 04:42:31;;;;;;;43.63;17.43;;;;;;;;;;5042652;28;20214;-37
2024/01/13 04:45:06;;;;;;;47.27;20.30;;;;;;;;;;5034073;28;20313;-33
2024/01/13 04:47:35;;;;;;;46.40;19.30;;;;;;;;;;5038942;28;20217;-35
2024/01/13 04:52:54;;;;;;;49.23;19.53;;;;;;;;;;5069353;28;20229;-33
2024/01/13 04:55:23;;;;;;;45.23;18.23;;;;;;;;;;5062932;28;20235;-35
2024/01/13 04:57:58;;;;;;;48.30;19.13;;;;;;;;;;5068476;28;20210;-35
2024/01/13 05:03:12;;;;;;;52.37;20.10;;;;;;;;;;5180683;22;20320;-26
2024/01/13 05:05:46;;;;;;;38.53;18.20;;;;;;;;;;5041125;28;20226;-25
2024/01/13 05:10:57;;;;;;;43.07;16.07;;;;;;;;;;5463741;22;20309;-35
2024/01/13 05:13:34;;;;;;;46.37;20.40;;;;;;;;;;5059750;28;20282;-32
2024/01/13 05:16:11;;;;;;;49.20;20.00;;;;;;;;;;5052269;28;20239;-34
2024/01/13 05:18:42;;;;;;;40.70;18.53;;;;;;;;;;5346972;22;20330;-36
2024/01/13 05:21:12;;;;;;;46.33;18.07;;;;;;;;;;5057752;28;20217;-32
2024/01/13 05:23:41;;;;;;;45.90;19.00;;;;;;;;;;5287426;22;20243;-27
2024/01/13 05:26:12;;;;;;;41.97;18.53;;;;;;;;;;5053964;28;20234;-26
2024/01/13 05:28:44;;;;;;;47.20;19.07;;;;;;;;;;5047085;28;20269;-27
2024/01/13 05:31:12;;;;;;;42.90;17.50;;;;;;;;;;5048481;28;20228;-26
2024/01/13 05:33:41;;;;;;;48.30;18.93;;;;;;;;;;5048555;28;20253;-25
2024/01/13 05:36:12;;;;;;;47.60;19.00;;;;;;;;;;5047393;28;20237;-26
2024/01/13 05:38:40;;;;;;;39.43;17.13;;;;;;;;;;5052260;28;20210;-26
2024/01/13 05:41:13;;;;;;;43.07;17.87;;;;;;;;;;5052339;28;20202;-28
2024/01/13 05:43:44;;;;;;;43.30;17.83;;;;;;;;;;5043405;28;20206;-27
2024/01/13 05:46:15;;;;;;;44.83;19.63;;;;;;;;;;5050848;28;20230;-26
2024/01/13 05:48:43;;;;;;;47.90;22.07;;;;;;;;;;5047994;28;20202;-26
2024/01/13 05:51:12;;;;;;;42.90;18.70;;;;;;;;;;5041708;28;20260;-26
2024/01/13 05:53:45;;;;;;;41.70;17.20;;;;;;;;;;5052055;28;20222;-26
2024/01/13 05:56:14;;;;;;;40.97;17.87;;;;;;;;;;5051845;28;20236;-27
2024/01/13 05:58:44;;;;;;;42.47;17.23;;;;;;;;;;5047675;28;20270;-27
2024/01/13 06:01:16;;;;;;;38.13;16.53;;;;;;;;;;5051467;28;20233;-25
2024/01/13 06:03:44;;;;;;;35.53;16.13;;;;;;;;;;5049423;28;20292;-27
2024/01/13 06:06:17;;;;;;;40.30;17.87;;;;;;;;;;5041013;28;20230;-25
2024/01/13 06:08:49;;;;;;;40.57;17.60;;;;;;;;;;5052693;28;20285;-27
2024/01/13 06:11:21;;;;;;;47.17;19.93;;;;;;;;;;5051903;28;20216;-26
2024/01/13 06:13:55;;;;;;;39.20;18.83;;;;;;;;;;5047510;28;20218;-26
2024/01/13 06:16:26;;;;;;;45.40;18.73;;;;;;;;;;5046401;28;20205;-28
2024/01/13 06:18:55;;;;;;;41.17;17.57;;;;;;;;;;5047631;28;20209;-28
2024/01/13 06:21:29;;;;;;;39.70;16.60;;;;;;;;;;5051560;28;20202;-26
2024/01/13 06:23:58;;;;;;;41.87;16.53;;;;;;;;;;5051214;28;20248;-26
2024/01/13 06:26:30;;;;;;;41.47;18.93;;;;;;;;;;5048363;28;20237;-28
2024/01/13 06:29:04;;;;;;;48.77;18.97;;;;;;;;;;5042812;28;20308;-27
2024/01/13 06:31:33;;;;;;;46.80;19.23;;;;;;;;;;5044909;28;20209;-26
2024/01/13 06:34:01;;;;;;;50.33;23.13;;;;;;;;;;5049855;28;20246;-27
2024/01/13 06:36:35;;;;;;;48.10;22.07;;;;;;;;;;5042805;28;20656;-26
2024/01/13 06:39:12;;;;;;;47.30;22.13;;;;;;;;;;5149335;22;20197;-28
2024/01/13 06:42:02;;;;;;;45.90;20.87;;;;;;;;;;4954218;28;20221;-27
2024/01/13 06:44:33;;;;;;;49.03;21.77;;;;;;;;;;4995748;28;20251;-27
2024/01/13 06:47:05;;;;;;;52.17;22.80;;;;;;;;;;5013476;28;20222;-28
2024/01/13 06:49:35;;;;;;;51.40;21.50;;;;;;;;;;5002400;28;20645;-27
2024/01/13 06:52:08;;;;;;;53.43;21.63;;;;;;;;;;5008521;28;20211;-28
2024/01/13 06:54:40;;;;;;;56.43;21.00;;;;;;;;;;5008106;28;20231;-26
2024/01/13 06:57:14;;;;;;;48.27;23.97;;;;;;;;;;5014926;28;20310;-27
2024/01/13 06:59:48;;;;;;;54.33;23.40;;;;;;;;;;5007087;28;20211;-27
2024/01/13 07:02:21;;;;;;;46.83;23.20;;;;;;;;;;5015644;28;20233;-26
2024/01/13 07:04:53;;;;;;;48.83;23.70;;;;;;;;;;5006798;28;20700;-26
2024/01/13 07:07:23;;;;;;;48.97;21.20;;;;;;;;;;5015798;28;20214;-26
2024/01/13 07:10:05;;;;;;;51.37;23.07;;;;;;;;;;5015396;28;20636;-26
2024/01/13 07:12:33;;;;;;;45.90;21.30;;;;;;;;;;5007211;28;20570;-27
2024/01/13 07:15:09;;;;;;;45.37;21.07;;;;;;;;;;5010715;28;20239;-27
2024/01/13 07:17:39;;;;;;;52.77;22.60;;;;;;;;;;5008515;28;20211;-26
2024/01/13 07:20:09;;;;;;;44.63;20.73;;;;;;;;;;5007674;28;20207;-25
2024/01/13 07:22:37;;;;;;;49.17;22.13;;;;;;;;;;5011069;28;20219;-27
2024/01/13 07:25:07;;;;;;;42.67;19.57;;;;;;;;;;5015389;28;20227;-27
2024/01/13 07:27:35;;;;;;;44.23;20.03;;;;;;;;;;5014800;28;20303;-28
2024/01/13 07:30:06;;;;;;;46.63;20.07;;;;;;;;;;5008309;28;20208;-27
2024/01/13 07:32:37;;;;;;;48.50;22.67;;;;;;;;;;5007045;28;20195;-27
2024/01/13 07:35:07;;;;;;;55.13;23.60;;;;;;;;;;5010668;28;20227;-27
2024/01/13 07:37:39;;;;;;;47.70;21.80;;;;;;;;;;5012755;28;20210;-27
2024/01/13 07:40:13;;;;;;;47.50;21.43;;;;;;;;;;5015685;28;20203;-26
2024/01/13 07:42:45;;;;;;;42.03;17.77;;;;;;;;;;5006387;28;20207;-26
2024/01/13 07:45:17;;;;;;;46.00;19.23;;;;;;;;;;5014849;28;20326;-25
2024/01/13 07:47:45;;;;;;;48.90;20.93;;;;;;;;;;5014895;28;20630;-27
2024/01/13 07:50:13;;;;;;;45.57;20.67;;;;;;;;;;5006793;28;20657;-25
2024/01/13 07:52:44;;;;;;;52.87;22.73;;;;;;;;;;5014377;28;20204;-25
2024/01/13 07:55:12;;;;;;;41.93;20.17;;;;;;;;;;5014659;28;20230;-27
2024/01/13 07:57:47;;;;;;;45.90;21.20;;;;;;;;;;5007724;28;20249;-27
2024/01/13 08:00:19;;;;;;;36.43;15.93;;;;;;;;;;5007676;28;20198;-27
2024/01/13 08:02:47;;;;;;;56.17;21.40;;;;;;;;;;5013798;28;20211;-27
2024/01/13 08:05:18;;;;;;;35.73;16.33;;;;;;;;;;5009552;28;20224;-28
2024/01/13 08:10:32;;;;;;;51.23;22.13;;;;;;;;;;5021610;28;20671;-32
2024/01/13 08:13:03;;;;;;;49.20;22.30;;;;;;;;;;5041095;28;20723;-34
2024/01/13 08:15:36;;;;;;;46.60;21.03;;;;;;;;;;5032100;28;20222;-36
2024/01/13 08:18:09;;;;;;;51.87;24.47;;;;;;;;;;5026770;28;20665;-32
2024/01/13 08:20:40;;;;;;;49.30;21.30;;;;;;;;;;5019825;28;20239;-36
2024/01/13 08:23:08;;;;;;;52.53;22.63;;;;;;;;;;5019737;28;20613;-37
2024/01/13 08:25:38;;;;;;;45.97;19.70;;;;;;;;;;5033235;28;20250;-32
2024/01/13 08:28:09;;;;;;;42.53;21.33;;;;;;;;;;5023598;28;20211;-35
2024/01/13 08:30:39;;;;;;;54.63;26.63;;;;;;;;;;5029519;28;20206;-33
2024/01/13 08:33:12;;;;;;;49.73;22.67;;;;;;;;;;5033692;28;20210;-30
2024/01/13 08:35:54;;;;;;;45.77;21.27;;;;;;;;;;5026252;28;20239;-31
2024/01/13 08:38:22;;;;;;;48.43;21.03;;;;;;;;;;5024071;28;20211;-38
2024/01/13 08:40:50;;;;;;;48.80;23.47;;;;;;;;;;5019072;28;20202;-32
2024/01/13 08:43:19;;;;;;;47.47;22.93;;;;;;;;;;5028595;28;20575;-35
2024/01/13 08:46:04;;;;;;;43.00;19.57;;;;;;;;;;5020931;28;20306;-33
2024/01/13 08:48:39;;;;;;;42.17;18.20;;;;;;;;;;5010352;28;20684;-36
2024/01/13 08:51:11;;;;;;;46.40;19.37;;;;;;;;;;5026426;28;20214;-38
2024/01/13 08:53:42;;;;;;;45.17;18.47;;;;;;;;;;5021235;28;20221;-33
2024/01/13 08:56:14;;;;;;;40.40;17.93;;;;;;;;;;5031882;28;20280;-31
2024/01/13 08:58:45;;;;;;;37.90;14.97;;;;;;;;;;5022545;28;20662;-34
2024/01/13 09:01:15;;;;;;;42.63;20.93;;;;;;;;;;5029636;28;20206;-34
2024/01/13 09:03:46;;;;;;;41.93;19.20;;;;;;;;;;5025030;28;20225;-35
2024/01/13 09:06:14;;;;;;;50.33;19.53;;;;;;;;;;5017051;28;20234;-34
2024/01/13 09:08:42;;;;;;;41.90;19.30;;;;;;;;;;5020664;28;20211;-33
2024/01/13 09:11:11;;;;;;;39.97;17.03;;;;;;;;;;5020687;28;20215;-36
2024/01/13 09:13:39;;;;;;;41.17;16.23;;;;;;;;;;5011517;28;20234;-31
2024/01/13 09:16:07;;;;;;;39.73;17.23;;;;;;;;;;5025825;28;20234;-32
2024/01/13 09:18:35;;;;;;;46.10;20.63;;;;;;;;;;5010205;28;20471;-36
2024/01/13 09:21:04;;;;;;;48.20;21.13;;;;;;;;;;5022276;28;20207;-32
2024/01/13 09:23:32;;;;;;;36.73;16.47;;;;;;;;;;5030513;28;20276;-32
2024/01/13 09:26:00;;;;;;;39.90;18.23;;;;;;;;;;5025936;28;20313;-32
2024/01/13 09:28:28;;;;;;;44.30;20.77;;;;;;;;;;5022411;28;20728;-34
2024/01/13 09:30:56;;;;;;;39.53;18.10;;;;;;;;;;5027123;28;20261;-35
2024/01/13 09:33:24;;;;;;;41.50;20.67;;;;;;;;;;5026499;28;20261;-33
2024/01/13 09:35:52;;;;;;;45.87;21.50;;;;;;;;;;5024526;28;20226;-34
2024/01/13 09:38:23;;;;;;;48.40;22.23;;;;;;;;;;5022685;28;20628;-31
2024/01/13 09:40:54;;;;;;;34.63;18.63;;;;;;;;;;5026551;28;20213;-34
2024/01/13 09:43:24;;;;;;;47.67;20.13;;;;;;;;;;5018607;28;20215;-35
2024/01/13 09:45:52;;;;;;;41.63;20.07;;;;;;;;;;5022689;28;20310;-32
2024/01/13 09:48:26;;;;;;;46.17;19.53;;;;;;;;;;5014611;28;20229;-30
2024/01/13 09:50:56;;;;;;;45.53;19.47;;;;;;;;;;5012816;28;20605;-32
2024/01/13 09:53:29;;;;;;;40.17;18.80;;;;;;;;;;5020797;28;20569;-35
2024/01/13 09:56:01;;;;;;;41.60;18.20;;;;;;;;;;5024043;28;20222;-34
2024/01/13 09:58:31;;;;;;;42.83;19.17;;;;;;;;;;5016066;28;20297;-34
2024/01/13 10:01:02;;;;;;;39.67;19.10;;;;;;;;;;5026435;28;20570;-33
2024/01/13 10:03:40;;;;;;;44.17;19.90;;;;;;;;;;5016393;28;20750;-36
2024/01/13 10:06:45;;;;;;;42.43;19.20;;;;;;;;;;5022041;28;20232;-38
2024/01/13 10:09:18;;;;;;;46.93;19.60;;;;;;;;;;5032254;28;20221;-34
2024/01/13 10:11:48;;;;;;;47.53;21.00;;;;;;;;;;5028185;28;20219;-30
2024/01/13 10:14:16;;;;;;;45.67;20.40;;;;;;;;;;5023502;28;20222;-34
2024/01/13 10:16:47;;;;;;;49.43;22.10;;;;;;;;;;5022018;28;20203;-33
2024/01/13 10:19:17;;;;;;;51.00;20.93;;;;;;;;;;5278986;22;20245;-26
2024/01/13 10:21:45;;;;;;;48.30;19.90;;;;;;;;;;5043383;28;20209;-27
2024/01/13 10:24:13;;;;;;;49.57;19.03;;;;;;;;;;5053149;28;20271;-27
2024/01/13 10:26:44;;;;;;;51.63;21.13;;;;;;;;;;5034366;28;20205;-28
2024/01/13 10:29:14;;;;;;;49.10;19.57;;;;;;;;;;5031521;28;20210;-27
2024/01/13 10:31:43;;;;;;;53.83;21.30;;;;;;;;;;5035664;28;20293;-27
2024/01/13 10:34:12;;;;;;;43.77;21.30;;;;;;;;;;5028129;28;20211;-26
2024/01/13 10:36:41;;;;;;;49.70;21.47;;;;;;;;;;5028155;28;20349;-25
2024/01/13 10:39:09;;;;;;;45.93;19.27;;;;;;;;;;5035422;28;20210;-27
2024/01/13 10:41:39;;;;;;;45.30;19.60;;;;;;;;;;5035488;28;20264;-28
2024/01/13 10:44:14;;;;;;;46.13;19.80;;;;;;;;;;5025523;28;20202;-28
2024/01/13 10:46:48;;;;;;;50.27;21.03;;;;;;;;;;5032546;28;20578;-27
2024/01/13 10:49:20;;;;;;;42.17;19.53;;;;;;;;;;5028551;28;20206;-27
2024/01/13 10:51:50;;;;;;;51.33;20.43;;;;;;;;;;5028126;28;20199;-27
2024/01/13 10:54:19;;;;;;;40.40;18.67;;;;;;;;;;5035158;28;20238;-26
2024/01/13 10:56:47;;;;;;;43.43;19.23;;;;;;;;;;5027291;28;20676;-27
2024/01/13 10:59:18;;;;;;;44.50;20.53;;;;;;;;;;5029165;28;20273;-29
2024/01/13 11:01:46;;;;;;;43.53;18.33;;;;;;;;;;5034932;28;20629;-28
2024/01/13 11:04:17;;;;;;;49.90;21.13;;;;;;;;;;5029013;28;20204;-28
2024/01/13 11:06:45;;;;;;;54.77;22.33;;;;;;;;;;5034455;28;20257;-26
2024/01/13 11:09:17;;;;;;;42.10;18.73;;;;;;;;;;5035206;28;20716;-27
2024/01/13 11:11:51;;;;;;;47.90;20.13;;;;;;;;;;5034794;28;20210;-27
2024/01/13 11:14:27;;;;;;;52.83;18.63;;;;;;;;;;5030209;28;20226;-27
2024/01/13 11:16:59;;;;;;;45.03;19.97;;;;;;;;;;5028708;28;20427;-26
2024/01/13 11:19:35;;;;;;;44.77;18.63;;;;;;;;;;5029538;28;20210;-26
2024/01/13 11:22:20;;;;;;;46.53;19.27;;;;;;;;;;5027001;28;20627;-27
2024/01/13 11:24:53;;;;;;;51.80;21.87;;;;;;;;;;5026321;28;20222;-25
2024/01/13 11:27:23;;;;;;;42.47;18.73;;;;;;;;;;5032690;28;20595;-26
2024/01/13 11:29:56;;;;;;;47.87;21.00;;;;;;;;;;5028823;28;20249;-26
2024/01/13 11:32:33;;;;;;;40.43;18.00;;;;;;;;;;5148721;22;20243;-27
2024/01/13 11:35:07;;;;;;;44.20;18.13;;;;;;;;;;5031738;28;20319;-26
2024/01/13 11:37:37;;;;;;;41.37;19.10;;;;;;;;;;5027038;28;20601;-26
2024/01/13 11:40:06;;;;;;;48.93;19.37;;;;;;;;;;5034851;28;20210;-28
2024/01/13 11:42:40;;;;;;;45.17;17.77;;;;;;;;;;5029252;28;20219;-27
2024/01/13 11:45:11;;;;;;;43.10;18.87;;;;;;;;;;5029429;28;20222;-28
2024/01/13 11:47:39;;;;;;;43.33;19.13;;;;;;;;;;5034928;28;20297;-28
2024/01/13 11:50:35;;;;;;;44.47;20.37;;;;;;;;;;5031814;28;20214;-27
2024/01/13 11:58:35;;;;;;;45.20;20.50;;;;;;;;;;5021426;28;20260;-26
2024/01/13 12:01:11;;;;;;;42.73;19.43;;;;;;;;;;5033060;28;20206;-28
2024/01/13 12:06:15;;;;;;;39.00;16.83;;;;;;;;;;5173228;22;20318;-32
2024/01/13 12:08:43;;;;;;;41.03;17.83;;;;;;;;;;5033285;28;20253;-35
2024/01/13 12:11:14;;;;;;;33.07;14.77;;;;;;;;;;5035054;28;20210;-36
2024/01/13 12:13:42;;;;;;;43.73;17.50;;;;;;;;;;5026518;28;20270;-33
2024/01/13 12:16:12;;;;;;;39.10;17.53;;;;;;;;;;5033935;28;20231;-35
2024/01/13 12:18:42;;;;;;;46.63;19.53;;;;;;;;;;5030306;28;20863;-32
2024/01/13 12:21:10;;;;;;;47.67;18.47;;;;;;;;;;5021411;28;20217;-31
2024/01/13 12:23:43;;;;;;;42.17;19.23;;;;;;;;;;5033514;28;20219;-32
2024/01/13 12:26:12;;;;;;;45.20;18.00;;;;;;;;;;5033772;28;20237;-34
2024/01/13 12:28:40;;;;;;;40.20;18.00;;;;;;;;;;5031061;28;20212;-37
2024/01/13 12:31:14;;;;;;;37.63;16.47;;;;;;;;;;5020081;28;20719;-33
2024/01/13 12:33:43;;;;;;;35.13;15.80;;;;;;;;;;5032310;28;20241;-31
2024/01/13 12:36:12;;;;;;;38.03;17.47;;;;;;;;;;5034018;28;20724;-35
2024/01/13 12:38:43;;;;;;;42.97;18.27;;;;;;;;;;5605492;22;20213;-35
2024/01/13 12:41:11;;;;;;;36.93;16.13;;;;;;;;;;5031791;28;20249;-34
2024/01/13 12:43:42;;;;;;;34.80;16.77;;;;;;;;;;5023795;28;20227;-34
2024/01/13 12:46:11;;;;;;;34.67;15.90;;;;;;;;;;5032765;28;20310;-32
2024/01/13 12:48:40;;;;;;;32.73;16.27;;;;;;;;;;5133382;22;20246;-27
2024/01/13 12:51:15;;;;;;;37.13;16.77;;;;;;;;;;5069201;28;20295;-27
2024/01/13 12:53:45;;;;;;;36.77;15.13;;;;;;;;;;5059466;28;20207;-27
2024/01/13 12:56:17;;;;;;;37.80;14.87;;;;;;;;;;5053795;28;20321;-27
2024/01/13 12:58:48;;;;;;;37.23;16.77;;;;;;;;;;5063650;28;20686;-26
2024/01/13 13:01:16;;;;;;;31.13;12.60;;;;;;;;;;5066930;28;20210;-28
2024/01/13 13:03:44;;;;;;;32.60;14.33;;;;;;;;;;5060227;28;20216;-25
2024/01/13 13:06:18;;;;;;;30.20;13.97;;;;;;;;;;5070601;28;20694;-25
2024/01/13 13:08:47;;;;;;;34.87;14.93;;;;;;;;;;5064644;28;20204;-26
2024/01/13 13:11:15;;;;;;;31.07;12.73;;;;;;;;;;5059987;28;20209;-27
2024/01/13 13:13:45;;;;;;;32.33;15.77;;;;;;;;;;5058048;28;20210;-28
2024/01/13 13:16:14;;;;;;;33.73;16.23;;;;;;;;;;5058436;28;20236;-26
2024/01/13 13:18:43;;;;;;;29.20;13.97;;;;;;;;;;5060227;28;20344;-28
2024/01/13 13:21:16;;;;;;;29.77;14.77;;;;;;;;;;5445052;22;20324;-25
2024/01/13 13:23:48;;;;;;;27.50;13.30;;;;;;;;;;5052645;28;20674;-26
2024/01/13 13:26:15;;;;;;;26.67;11.73;;;;;;;;;;5046146;28;20230;-26
2024/01/13 13:28:45;;;;;;;24.97;12.43;;;;;;;;;;5041077;28;20214;-28
2024/01/13 13:31:16;;;;;;;25.70;11.87;;;;;;;;;;5046306;28;20209;-27
2024/01/13 13:33:44;;;;;;;24.60;12.37;;;;;;;;;;5042365;28;20205;-28
2024/01/13 13:36:11;;;;;;;27.73;10.53;;;;;;;;;;5034971;28;20230;-28
2024/01/13 13:38:39;;;;;;;21.93;11.37;;;;;;;;;;5049676;28;20313;-28
2024/01/13 13:41:10;;;;;;;25.13;10.70;;;;;;;;;;5046723;28;20245;-28
2024/01/13 13:43:38;;;;;;;20.53;9.87;;;;;;;;;;5044674;28;20213;-27
2024/01/13 13:46:08;;;;;;;24.63;10.13;;;;;;;;;;5039690;28;20257;-27
2024/01/13 13:48:42;;;;;;;26.77;12.43;;;;;;;;;;5289718;22;20234;-25
2024/01/13 13:51:11;;;;;;;20.70;9.10;;;;;;;;;;5056690;28;20296;-25
2024/01/13 13:53:41;;;;;;;21.27;10.27;;;;;;;;;;5059058;28;20216;-29
2024/01/13 13:56:11;;;;;;;21.63;10.43;;;;;;;;;;5047089;28;20237;-29
2024/01/13 13:58:40;;;;;;;19.33;9.83;;;;;;;;;;5038831;28;20217;-28
2024/01/13 14:01:07;;;;;;;23.30;11.63;;;;;;;;;;5043593;28;20210;-27
2024/01/13 14:03:36;;;;;;;24.33;11.50;;;;;;;;;;5041225;28;20202;-28
2024/01/13 14:06:04;;;;;;;22.97;11.63;;;;;;;;;;5035836;28;20227;-28
2024/01/13 14:08:32;;;;;;;22.03;10.43;;;;;;;;;;5043482;28;20202;-27
2024/01/13 14:11:02;;;;;;;26.17;12.10;;;;;;;;;;5040986;28;20206;-27
2024/01/13 14:13:35;;;;;;;21.53;9.10;;;;;;;;;;5045310;28;20202;-28
2024/01/13 14:16:02;;;;;;;20.33;9.90;;;;;;;;;;5040734;28;20232;-26
2024/01/13 14:18:33;;;;;;;21.73;10.57;;;;;;;;;;5039063;28;20209;-28
2024/01/13 14:21:02;;;;;;;21.70;10.10;;;;;;;;;;5040347;28;20250;-28
2024/01/13 14:23:30;;;;;;;27.73;12.50;;;;;;;;;;5034735;28;20206;-27
2024/01/13 14:26:00;;;;;;;23.97;11.97;;;;;;;;;;5044403;28;20582;-27
2024/01/13 14:28:31;;;;;;;26.87;11.40;;;;;;;;;;5041072;28;20259;-29
2024/01/13 14:31:03;;;;;;;21.33;10.10;;;;;;;;;;5042307;28;20206;-29
2024/01/13 14:33:31;;;;;;;20.60;11.03;;;;;;;;;;5043445;28;20211;-28
2024/01/13 14:35:59;;;;;;;20.77;10.13;;;;;;;;;;5035364;28;20230;-29
2024/01/13 14:38:28;;;;;;;26.10;11.83;;;;;;;;;;5043445;28;20210;-27
2024/01/13 14:41:03;;;;;;;25.43;11.67;;;;;;;;;;5046113;28;20209;-28
2024/01/13 14:43:31;;;;;;;22.10;10.73;;;;;;;;;;5031639;28;20210;-28
2024/01/13 14:45:59;;;;;;;27.43;11.80;;;;;;;;;;5041136;28;20284;-28
2024/01/13 14:48:29;;;;;;;27.03;11.57;;;;;;;;;;5034937;28;20659;-28
2024/01/13 14:50:59;;;;;;;23.20;11.20;;;;;;;;;;5034144;28;20214;-29
2024/01/13 14:53:27;;;;;;;24.47;11.67;;;;;;;;;;5050609;28;20206;-27
2024/01/13 14:55:58;;;;;;;26.10;11.70;;;;;;;;;;5040793;28;20321;-28
2024/01/13 14:58:26;;;;;;;23.40;10.60;;;;;;;;;;5041659;28;20224;-26
2024/01/13 15:00:54;;;;;;;24.57;11.63;;;;;;;;;;5032519;28;20715;-27